sensor_id;sensor_type;location;lat;lon;timestamp;pressure;altitude;pressure_sealevel;temperature;humidity
64343;BME280;50675;53.530;-6.312;2022-08-19T00:01:39;100475.84;;;15.33;60.83
64343;BME280;50675;53.530;-6.312;2022-08-19T00:04:09;100481.41;;;15.18;60.83
64343;BME280;50675;53.530;-6.312;2022-08-19T00:06:36;100488.22;;;15.20;60.91
64343;BME280;50675;53.530;-6.312;2022-08-19T00:09:05;100476.25;;;15.16;60.93
64343;BME280;50675;53.530;-6.312;2022-08-19T00:11:32;100487.91;;;15.22;61.16
64343;BME280;50675;53.530;-6.312;2022-08-19T00:13:58;100487.34;;;15.25;60.94
64343;BME280;50675;53.530;-6.312;2022-08-19T00:16:24;100492.53;;;15.21;61.05
64343;BME280;50675;53.530;-6.312;2022-08-19T00:18:50;100493.88;;;15.24;61.17
64343;BME280;50675;53.530;-6.312;2022-08-19T00:21:16;100482.00;;;15.10;61.26
64343;BME280;50675;53.530;-6.312;2022-08-19T00:23:42;100494.16;;;15.22;61.13
64343;BME280;50675;53.530;-6.312;2022-08-19T00:26:09;100498.28;;;15.20;61.15
64343;BME280;50675;53.530;-6.312;2022-08-19T00:28:36;100494.19;;;15.17;61.29
64343;BME280;50675;53.530;-6.312;2022-08-19T00:31:04;100497.19;;;15.16;61.30
64343;BME280;50675;53.530;-6.312;2022-08-19T00:33:31;100509.47;;;15.13;61.23
64343;BME280;50675;53.530;-6.312;2022-08-19T00:36:01;100508.38;;;15.14;61.23
64343;BME280;50675;53.530;-6.312;2022-08-19T00:38:29;100498.88;;;15.07;61.39
64343;BME280;50675;53.530;-6.312;2022-08-19T00:40:55;100502.75;;;15.01;61.50
64343;BME280;50675;53.530;-6.312;2022-08-19T00:43:24;100506.56;;;14.95;61.29
64343;BME280;50675;53.530;-6.312;2022-08-19T00:45:52;100505.50;;;14.96;61.44
64343;BME280;50675;53.530;-6.312;2022-08-19T00:48:19;100506.56;;;14.95;61.50
64343;BME280;50675;53.530;-6.312;2022-08-19T00:50:45;100495.47;;;14.91;61.53
64343;BME280;50675;53.530;-6.312;2022-08-19T00:53:15;100501.44;;;14.88;61.37
64343;BME280;50675;53.530;-6.312;2022-08-19T00:55:46;100511.56;;;14.82;61.47
64343;BME280;50675;53.530;-6.312;2022-08-19T00:58:16;100510.75;;;14.77;61.60
64343;BME280;50675;53.530;-6.312;2022-08-19T01:00:43;100505.34;;;14.72;61.57
64343;BME280;50675;53.530;-6.312;2022-08-19T01:03:15;100500.41;;;14.74;61.64
64343;BME280;50675;53.530;-6.312;2022-08-19T01:05:43;100499.34;;;14.75;61.70
64343;BME280;50675;53.530;-6.312;2022-08-19T01:08:10;100501.53;;;14.73;61.72
64343;BME280;50675;53.530;-6.312;2022-08-19T01:10:42;100496.66;;;14.65;61.53
64343;BME280;50675;53.530;-6.312;2022-08-19T01:13:10;100495.81;;;14.69;61.59
64343;BME280;50675;53.530;-6.312;2022-08-19T01:15:49;100491.53;;;14.58;61.75
64343;BME280;50675;53.530;-6.312;2022-08-19T01:18:17;100493.69;;;14.61;61.77
64343;BME280;50675;53.530;-6.312;2022-08-19T01:20:44;100497.72;;;14.69;61.79
64343;BME280;50675;53.530;-6.312;2022-08-19T01:23:11;100492.03;;;14.65;61.98
64343;BME280;50675;53.530;-6.312;2022-08-19T01:25:49;100504.28;;;14.68;61.79
64343;BME280;50675;53.530;-6.312;2022-08-19T01:28:24;100501.56;;;14.68;61.89
64343;BME280;50675;53.530;-6.312;2022-08-19T01:30:51;100494.19;;;14.68;61.97
64343;BME280;50675;53.530;-6.312;2022-08-19T01:33:19;100509.13;;;14.76;61.95
64343;BME280;50675;53.530;-6.312;2022-08-19T01:35:45;100512.63;;;14.81;61.90
64343;BME280;50675;53.530;-6.312;2022-08-19T01:38:22;100509.63;;;14.83;62.01
64343;BME280;50675;53.530;-6.312;2022-08-19T01:40:48;100516.19;;;14.82;61.92
64343;BME280;50675;53.530;-6.312;2022-08-19T01:43:14;100502.81;;;14.85;62.20
64343;BME280;50675;53.530;-6.312;2022-08-19T01:45:41;100503.69;;;14.76;62.23
64343;BME280;50675;53.530;-6.312;2022-08-19T01:48:08;100511.28;;;14.74;62.32
64343;BME280;50675;53.530;-6.312;2022-08-19T01:50:35;100506.38;;;14.81;62.28
64343;BME280;50675;53.530;-6.312;2022-08-19T01:53:05;100509.66;;;14.78;62.38
64343;BME280;50675;53.530;-6.312;2022-08-19T01:55:31;100502.88;;;14.75;62.32
64343;BME280;50675;53.530;-6.312;2022-08-19T01:58:00;100504.28;;;14.68;62.28
64343;BME280;50675;53.530;-6.312;2022-08-19T02:00:30;100500.44;;;14.69;62.37
64343;BME280;50675;53.530;-6.312;2022-08-19T02:02:56;100500.72;;;14.72;62.40
64343;BME280;50675;53.530;-6.312;2022-08-19T02:05:22;100498.81;;;14.73;62.50
64343;BME280;50675;53.530;-6.312;2022-08-19T02:07:48;100493.06;;;14.79;62.60
64343;BME280;50675;53.530;-6.312;2022-08-19T02:10:20;100497.91;;;14.87;62.67
64343;BME280;50675;53.530;-6.312;2022-08-19T02:12:46;100507.41;;;14.95;62.46
64343;BME280;50675;53.530;-6.312;2022-08-19T02:15:12;100500.38;;;14.84;62.81
64343;BME280;50675;53.530;-6.312;2022-08-19T02:17:38;100510.13;;;14.95;62.67
64343;BME280;50675;53.530;-6.312;2022-08-19T02:20:05;100512.59;;;14.92;62.64
64343;BME280;50675;53.530;-6.312;2022-08-19T02:22:32;100509.28;;;15.00;62.70
64343;BME280;50675;53.530;-6.312;2022-08-19T02:24:57;100512.25;;;15.03;62.62
64343;BME280;50675;53.530;-6.312;2022-08-19T02:27:23;100504.63;;;15.05;62.80
64343;BME280;50675;53.530;-6.312;2022-08-19T02:29:50;100495.66;;;15.05;62.63
64343;BME280;50675;53.530;-6.312;2022-08-19T02:32:17;100517.88;;;15.17;62.97
64343;BME280;50675;53.530;-6.312;2022-08-19T02:34:45;100514.09;;;15.13;63.11
64343;BME280;50675;53.530;-6.312;2022-08-19T02:37:11;100504.34;;;15.02;62.90
64343;BME280;50675;53.530;-6.312;2022-08-19T02:39:57;100510.59;;;15.02;62.90
64343;BME280;50675;53.530;-6.312;2022-08-19T02:42:23;100510.72;;;14.87;62.96
64343;BME280;50675;53.530;-6.312;2022-08-19T02:44:49;100508.25;;;14.85;63.06
64343;BME280;50675;53.530;-6.312;2022-08-19T02:47:15;100508.28;;;14.80;63.08
64343;BME280;50675;53.530;-6.312;2022-08-19T02:49:41;100487.16;;;14.62;63.12
64343;BME280;50675;53.530;-6.312;2022-08-19T02:52:07;100505.38;;;14.67;63.20
64343;BME280;50675;53.530;-6.312;2022-08-19T02:54:34;100501.81;;;14.66;63.19
64343;BME280;50675;53.530;-6.312;2022-08-19T02:56:59;100492.03;;;14.65;63.34
64343;BME280;50675;53.530;-6.312;2022-08-19T02:59:25;100499.97;;;14.57;63.13
64343;BME280;50675;53.530;-6.312;2022-08-19T03:01:54;100496.69;;;14.55;63.12
64343;BME280;50675;53.530;-6.312;2022-08-19T03:04:20;100484.75;;;14.51;63.33
64343;BME280;50675;53.530;-6.312;2022-08-19T03:06:47;100493.22;;;14.49;63.32
64343;BME280;50675;53.530;-6.312;2022-08-19T03:09:13;100493.22;;;14.44;63.18
64343;BME280;50675;53.530;-6.312;2022-08-19T03:11:39;100498.38;;;14.45;63.37
64343;BME280;50675;53.530;-6.312;2022-08-19T03:14:07;100497.88;;;14.38;63.29
64343;BME280;50675;53.530;-6.312;2022-08-19T03:16:43;100488.34;;;14.26;63.34
64343;BME280;50675;53.530;-6.312;2022-08-19T03:19:09;100497.03;;;14.33;63.43
64343;BME280;50675;53.530;-6.312;2022-08-19T03:21:35;100493.75;;;14.31;63.52
64343;BME280;50675;53.530;-6.312;2022-08-19T03:24:05;100509.53;;;14.34;63.38
64343;BME280;50675;53.530;-6.312;2022-08-19T03:26:31;100507.91;;;14.28;63.64
64343;BME280;50675;53.530;-6.312;2022-08-19T03:28:57;100509.00;;;14.22;63.68
64343;BME280;50675;53.530;-6.312;2022-08-19T03:31:25;100505.47;;;14.21;63.58
64343;BME280;50675;53.530;-6.312;2022-08-19T03:33:51;100513.34;;;14.28;63.75
64343;BME280;50675;53.530;-6.312;2022-08-19T03:36:24;100510.63;;;14.28;63.71
64343;BME280;50675;53.530;-6.312;2022-08-19T03:38:53;100517.72;;;14.24;63.65
64343;BME280;50675;53.530;-6.312;2022-08-19T03:41:23;100513.91;;;14.25;63.94
64343;BME280;50675;53.530;-6.312;2022-08-19T03:43:49;100506.59;;;14.20;63.84
64343;BME280;50675;53.530;-6.312;2022-08-19T03:46:18;100507.09;;;14.27;63.99
64343;BME280;50675;53.530;-6.312;2022-08-19T03:48:46;100504.66;;;14.26;63.96
64343;BME280;50675;53.530;-6.312;2022-08-19T03:51:26;100505.22;;;14.23;63.87
64343;BME280;50675;53.530;-6.312;2022-08-19T03:53:54;100503.84;;;14.25;64.17
64343;BME280;50675;53.530;-6.312;2022-08-19T03:56:20;100494.34;;;14.23;64.13
64343;BME280;50675;53.530;-6.312;2022-08-19T03:58:46;100496.00;;;14.03;64.26
64343;BME280;50675;53.530;-6.312;2022-08-19T04:01:15;100493.28;;;14.14;64.09
64343;BME280;50675;53.530;-6.312;2022-08-19T04:03:41;100482.97;;;14.16;64.31
64343;BME280;50675;53.530;-6.312;2022-08-19T04:06:19;100482.97;;;14.16;64.41
64343;BME280;50675;53.530;-6.312;2022-08-19T04:08:47;100482.13;;;14.20;64.51
64343;BME280;50675;53.530;-6.312;2022-08-19T04:11:16;100482.69;;;14.12;64.38
64343;BME280;50675;53.530;-6.312;2022-08-19T04:13:42;100488.34;;;14.21;64.30
64343;BME280;50675;53.530;-6.312;2022-08-19T04:16:11;100499.53;;;14.14;64.51
64343;BME280;50675;53.530;-6.312;2022-08-19T04:18:38;100488.41;;;14.11;64.52
64343;BME280;50675;53.530;-6.312;2022-08-19T04:21:04;100507.41;;;14.11;64.56
64343;BME280;50675;53.530;-6.312;2022-08-19T04:23:30;100489.22;;;14.11;64.70
64343;BME280;50675;53.530;-6.312;2022-08-19T04:25:56;100498.69;;;14.19;64.66
64343;BME280;50675;53.530;-6.312;2022-08-19T04:28:23;100491.94;;;14.06;64.77
64343;BME280;50675;53.530;-6.312;2022-08-19T04:30:51;100497.06;;;14.18;64.98
64343;BME280;50675;53.530;-6.312;2022-08-19T04:33:20;100492.75;;;14.07;64.93
64343;BME280;50675;53.530;-6.312;2022-08-19T04:35:49;100490.59;;;14.03;65.11
64343;BME280;50675;53.530;-6.312;2022-08-19T04:38:17;100494.94;;;14.05;65.08
64343;BME280;50675;53.530;-6.312;2022-08-19T04:40:47;100493.56;;;14.02;65.09
64343;BME280;50675;53.530;-6.312;2022-08-19T04:43:32;100503.09;;;13.99;64.87
64343;BME280;50675;53.530;-6.312;2022-08-19T04:46:04;100495.75;;;14.00;65.12
64343;BME280;50675;53.530;-6.312;2022-08-19T04:48:31;100500.38;;;13.99;65.01
64343;BME280;50675;53.530;-6.312;2022-08-19T04:50:58;100502.53;;;14.02;65.23
64343;BME280;50675;53.530;-6.312;2022-08-19T04:53:29;100504.72;;;14.00;65.38
64343;BME280;50675;53.530;-6.312;2022-08-19T04:55:57;100509.06;;;13.96;65.32
64343;BME280;50675;53.530;-6.312;2022-08-19T04:58:25;100509.06;;;13.96;65.45
64343;BME280;50675;53.530;-6.312;2022-08-19T05:00:51;100510.16;;;14.00;65.36
64343;BME280;50675;53.530;-6.312;2022-08-19T05:03:17;100505.00;;;13.94;65.40
64343;BME280;50675;53.530;-6.312;2022-08-19T05:05:44;100510.44;;;13.89;65.73
64343;BME280;50675;53.530;-6.312;2022-08-19T05:08:12;100521.53;;;14.02;65.48
64343;BME280;50675;53.530;-6.312;2022-08-19T05:10:39;100518.56;;;13.94;65.70
64343;BME280;50675;53.530;-6.312;2022-08-19T05:13:05;100524.25;;;13.97;65.57
64343;BME280;50675;53.530;-6.312;2022-08-19T05:15:31;100512.88;;;13.95;65.64
64343;BME280;50675;53.530;-6.312;2022-08-19T05:17:56;100512.88;;;13.90;65.60
64343;BME280;50675;53.530;-6.312;2022-08-19T05:20:41;100510.97;;;13.86;65.81
64343;BME280;50675;53.530;-6.312;2022-08-19T05:23:26;100507.72;;;13.84;65.63
64343;BME280;50675;53.530;-6.312;2022-08-19T05:25:51;100504.47;;;13.77;65.75
64343;BME280;50675;53.530;-6.312;2022-08-19T05:28:19;100508.53;;;13.89;65.78
64343;BME280;50675;53.530;-6.312;2022-08-19T05:30:45;100511.78;;;13.96;65.80
64343;BME280;50675;53.530;-6.312;2022-08-19T05:33:11;100508.25;;;14.01;65.76
64343;BME280;50675;53.530;-6.312;2022-08-19T05:35:38;100515.59;;;14.00;65.96
64343;BME280;50675;53.530;-6.312;2022-08-19T05:38:05;100521.00;;;14.06;65.83
64343;BME280;50675;53.530;-6.312;2022-08-19T05:40:38;100521.53;;;14.02;66.04
64343;BME280;50675;53.530;-6.312;2022-08-19T05:43:05;100524.53;;;14.01;65.85
64343;BME280;50675;53.530;-6.312;2022-08-19T05:45:32;100535.13;;;13.92;66.00
64343;BME280;50675;53.530;-6.312;2022-08-19T05:47:58;100537.31;;;14.00;66.19
64343;BME280;50675;53.530;-6.312;2022-08-19T05:50:24;100526.97;;;13.97;66.11
64343;BME280;50675;53.530;-6.312;2022-08-19T05:52:52;100537.84;;;14.02;66.25
64343;BME280;50675;53.530;-6.312;2022-08-19T05:55:18;100530.78;;;14.01;66.08
64343;BME280;50675;53.530;-6.312;2022-08-19T05:57:46;100539.72;;;14.07;66.13
64343;BME280;50675;53.530;-6.312;2022-08-19T06:00:13;100547.88;;;14.07;66.27
64343;BME280;50675;53.530;-6.312;2022-08-19T06:02:40;100541.63;;;14.12;66.25
64343;BME280;50675;53.530;-6.312;2022-08-19T06:05:06;100548.97;;;14.11;66.37
64343;BME280;50675;53.530;-6.312;2022-08-19T06:07:35;100547.09;;;14.01;66.34
64343;BME280;50675;53.530;-6.312;2022-08-19T06:10:03;100566.34;;;14.15;66.47
64343;BME280;50675;53.530;-6.312;2022-08-19T06:12:31;100565.53;;;14.10;66.33
64343;BME280;50675;53.530;-6.312;2022-08-19T06:15:01;100562.00;;;14.14;66.34
64343;BME280;50675;53.530;-6.312;2022-08-19T06:17:28;100575.28;;;14.26;66.45
64343;BME280;50675;53.530;-6.312;2022-08-19T06:19:55;100574.75;;;14.44;66.41
64343;BME280;50675;53.530;-6.312;2022-08-19T06:22:21;100581.22;;;14.63;66.47
64343;BME280;50675;53.530;-6.312;2022-08-19T06:24:47;100578.72;;;14.77;66.33
64343;BME280;50675;53.530;-6.312;2022-08-19T06:27:13;100576.81;;;14.82;66.36
64343;BME280;50675;53.530;-6.312;2022-08-19T06:29:39;100577.91;;;14.81;66.41
64343;BME280;50675;53.530;-6.312;2022-08-19T06:32:04;100583.06;;;14.78;66.49
64343;BME280;50675;53.530;-6.312;2022-08-19T06:34:32;100581.72;;;14.80;66.59
64343;BME280;50675;53.530;-6.312;2022-08-19T06:37:00;100584.63;;;14.99;66.37
64343;BME280;50675;53.530;-6.312;2022-08-19T06:39:32;100585.03;;;15.26;66.32
64343;BME280;50675;53.530;-6.312;2022-08-19T06:42:00;100591.78;;;15.39;66.40
64343;BME280;50675;53.530;-6.312;2022-08-19T06:44:29;100584.09;;;15.46;66.45
64343;BME280;50675;53.530;-6.312;2022-08-19T06:47:01;100595.13;;;15.70;66.27
64343;BME280;50675;53.530;-6.312;2022-08-19T06:49:27;100593.03;;;15.96;66.32
64343;BME280;50675;53.530;-6.312;2022-08-19T06:51:56;100591.56;;;16.37;66.16
64343;BME280;50675;53.530;-6.312;2022-08-19T06:54:23;100583.81;;;16.73;66.23
64343;BME280;50675;53.530;-6.312;2022-08-19T06:56:48;100583.75;;;17.21;65.79
64343;BME280;50675;53.530;-6.312;2022-08-19T06:59:17;100584.66;;;17.54;65.97
64343;BME280;50675;53.530;-6.312;2022-08-19T07:01:49;100588.09;;;17.97;65.60
64343;BME280;50675;53.530;-6.312;2022-08-19T07:04:18;100574.66;;;18.32;65.48
64343;BME280;50675;53.530;-6.312;2022-08-19T07:06:44;100597.69;;;18.72;65.51
64343;BME280;50675;53.530;-6.312;2022-08-19T07:09:13;100591.72;;;18.98;65.20
64343;BME280;50675;53.530;-6.312;2022-08-19T07:11:44;100598.69;;;19.31;64.71
64343;BME280;50675;53.530;-6.312;2022-08-19T07:14:10;100592.78;;;19.74;64.63
64343;BME280;50675;53.530;-6.312;2022-08-19T07:16:36;100596.81;;;19.90;64.33
64343;BME280;50675;53.530;-6.312;2022-08-19T07:19:01;100603.13;;;20.21;64.25
64343;BME280;50675;53.530;-6.312;2022-08-19T07:21:28;100594.72;;;20.40;63.57
64343;BME280;50675;53.530;-6.312;2022-08-19T07:23:55;100581.72;;;20.54;63.20
64343;BME280;50675;53.530;-6.312;2022-08-19T07:26:27;100597.59;;;20.66;63.23
64343;BME280;50675;53.530;-6.312;2022-08-19T07:28:54;100596.94;;;20.69;62.71
64343;BME280;50675;53.530;-6.312;2022-08-19T07:31:22;100590.19;;;20.75;62.24
64343;BME280;50675;53.530;-6.312;2022-08-19T07:33:50;100599.84;;;21.12;62.10
64343;BME280;50675;53.530;-6.312;2022-08-19T07:36:19;100599.56;;;21.22;62.10
64343;BME280;50675;53.530;-6.312;2022-08-19T07:38:48;100605.22;;;21.34;61.62
64343;BME280;50675;53.530;-6.312;2022-08-19T07:41:18;100592.16;;;21.48;61.32
64343;BME280;50675;53.530;-6.312;2022-08-19T07:43:44;100597.03;;;21.51;60.83
64343;BME280;50675;53.530;-6.312;2022-08-19T07:46:11;100596.53;;;21.58;60.63
64343;BME280;50675;53.530;-6.312;2022-08-19T07:48:41;100600.25;;;21.53;60.26
64343;BME280;50675;53.530;-6.312;2022-08-19T07:51:08;100605.28;;;21.60;60.23
64343;BME280;50675;53.530;-6.312;2022-08-19T07:53:35;100619.31;;;21.58;59.81
64343;BME280;50675;53.530;-6.312;2022-08-19T07:56:02;100620.13;;;21.59;59.69
64343;BME280;50675;53.530;-6.312;2022-08-19T07:58:39;100623.19;;;21.49;59.44
64343;BME280;50675;53.530;-6.312;2022-08-19T08:01:08;100625.28;;;21.34;59.40
64343;BME280;50675;53.530;-6.312;2022-08-19T08:03:36;100631.25;;;21.28;58.88
64343;BME280;50675;53.530;-6.312;2022-08-19T08:06:20;100624.44;;;21.17;58.78
64343;BME280;50675;53.530;-6.312;2022-08-19T08:09:06;100616.59;;;20.93;58.73
64343;BME280;50675;53.530;-6.312;2022-08-19T08:11:45;100631.25;;;20.80;58.50
64343;BME280;50675;53.530;-6.312;2022-08-19T08:14:16;100623.59;;;20.68;58.58
64343;BME280;50675;53.530;-6.312;2022-08-19T08:16:44;100633.84;;;20.54;58.41
64343;BME280;50675;53.530;-6.312;2022-08-19T08:19:12;100641.31;;;20.31;58.43
64343;BME280;50675;53.530;-6.312;2022-08-19T08:21:40;100635.75;;;20.23;58.26
64343;BME280;50675;53.530;-6.312;2022-08-19T08:24:06;100631.31;;;20.13;58.07
64343;BME280;50675;53.530;-6.312;2022-08-19T08:26:32;100624.97;;;20.04;58.13
64343;BME280;50675;53.530;-6.312;2022-08-19T08:28:57;100627.84;;;19.99;58.14
64343;BME280;50675;53.530;-6.312;2022-08-19T08:31:23;100625.09;;;19.99;58.20
64343;BME280;50675;53.530;-6.312;2022-08-19T08:33:49;100634.72;;;19.96;58.12
64343;BME280;50675;53.530;-6.312;2022-08-19T08:36:16;100641.66;;;19.94;58.09
64343;BME280;50675;53.530;-6.312;2022-08-19T08:38:43;100641.16;;;19.92;57.77
64343;BME280;50675;53.530;-6.312;2022-08-19T08:43:59;100647.44;;;19.70;58.02
64343;BME280;50675;53.530;-6.312;2022-08-19T08:46:54;100643.88;;;19.70;57.75
64343;BME280;50675;53.530;-6.312;2022-08-19T08:49:54;100641.81;;;19.75;57.86
64343;BME280;50675;53.530;-6.312;2022-08-19T08:52:24;100649.94;;;19.80;57.86
64343;BME280;50675;53.530;-6.312;2022-08-19T08:54:53;100640.03;;;19.71;57.46
64343;BME280;50675;53.530;-6.312;2022-08-19T08:57:32;100640.91;;;19.80;57.36
64343;BME280;50675;53.530;-6.312;2022-08-19T09:00:02;100639.69;;;19.72;57.30
64343;BME280;50675;53.530;-6.312;2022-08-19T09:02:31;100636.84;;;19.77;57.36
64343;BME280;50675;53.530;-6.312;2022-08-19T09:04:59;100633.41;;;19.72;57.50
64343;BME280;50675;53.530;-6.312;2022-08-19T09:07:50;100621.13;;;19.69;57.61
64343;BME280;50675;53.530;-6.312;2022-08-19T09:10:38;100636.56;;;19.65;57.59
64343;BME280;50675;53.530;-6.312;2022-08-19T09:16:13;100632.22;;;19.64;57.28
64343;BME280;50675;53.530;-6.312;2022-08-19T09:18:51;100638.69;;;19.68;57.58
64343;BME280;50675;53.530;-6.312;2022-08-19T09:21:45;100628.72;;;19.86;57.51
64343;BME280;50675;53.530;-6.312;2022-08-19T09:24:26;100633.75;;;19.92;57.44
64343;BME280;50675;53.530;-6.312;2022-08-19T09:27:32;100638.78;;;19.99;57.09
64343;BME280;50675;53.530;-6.312;2022-08-19T09:30:00;100650.25;;;20.01;56.88
64343;BME280;50675;53.530;-6.312;2022-08-19T09:32:26;100650.75;;;20.03;57.07
64343;BME280;50675;53.530;-6.312;2022-08-19T09:34:56;100648.38;;;20.10;56.93
64343;BME280;50675;53.530;-6.312;2022-08-19T09:37:24;100649.88;;;20.16;57.01
64343;BME280;50675;53.530;-6.312;2022-08-19T09:39:52;100640.84;;;20.16;56.79
64343;BME280;50675;53.530;-6.312;2022-08-19T09:42:25;100654.31;;;20.26;56.72
64343;BME280;50675;53.530;-6.312;2022-08-19T09:44:51;100650.44;;;20.27;56.46
64343;BME280;50675;53.530;-6.312;2022-08-19T09:47:16;100647.19;;;20.25;56.46
64343;BME280;50675;53.530;-6.312;2022-08-19T09:49:42;100642.13;;;20.32;56.41
64343;BME280;50675;53.530;-6.312;2022-08-19T09:52:09;100628.72;;;20.30;56.61
64343;BME280;50675;53.530;-6.312;2022-08-19T09:58:36;100649.22;;;20.33;56.26
64343;BME280;50675;53.530;-6.312;2022-08-19T10:01:05;100641.91;;;20.28;55.95
64343;BME280;50675;53.530;-6.312;2022-08-19T10:03:35;100646.41;;;20.02;56.09
64343;BME280;50675;53.530;-6.312;2022-08-19T10:06:07;100635.88;;;19.95;55.72
64343;BME280;50675;53.530;-6.312;2022-08-19T10:08:36;100632.75;;;19.88;56.12
64343;BME280;50675;53.530;-6.312;2022-08-19T10:11:03;100639.09;;;19.97;56.12
64343;BME280;50675;53.530;-6.312;2022-08-19T10:13:31;100630.88;;;19.97;55.81
64343;BME280;50675;53.530;-6.312;2022-08-19T10:16:05;100637.00;;;19.94;55.89
64343;BME280;50675;53.530;-6.312;2022-08-19T10:18:31;100627.13;;;19.71;55.71
64343;BME280;50675;53.530;-6.312;2022-08-19T10:21:11;100630.16;;;19.70;55.48
64343;BME280;50675;53.530;-6.312;2022-08-19T10:23:39;100629.34;;;19.69;55.76
64343;BME280;50675;53.530;-6.312;2022-08-19T10:26:06;100632.84;;;19.61;55.94
64343;BME280;50675;53.530;-6.312;2022-08-19T10:28:35;100640.66;;;19.54;55.41
64343;BME280;50675;53.530;-6.312;2022-08-19T10:31:12;100642.91;;;19.38;55.60
64343;BME280;50675;53.530;-6.312;2022-08-19T10:33:39;100643.81;;;19.34;55.67
64343;BME280;50675;53.530;-6.312;2022-08-19T10:36:08;100646.38;;;19.16;56.04
64343;BME280;50675;53.530;-6.312;2022-08-19T10:38:35;100638.34;;;19.06;55.93
64343;BME280;50675;53.530;-6.312;2022-08-19T10:41:10;100643.94;;;19.01;56.35
64343;BME280;50675;53.530;-6.312;2022-08-19T10:43:36;100641.81;;;18.98;56.04
64343;BME280;50675;53.530;-6.312;2022-08-19T10:46:05;100629.03;;;18.80;56.36
64343;BME280;50675;53.530;-6.312;2022-08-19T10:48:32;100642.00;;;18.74;56.23
64343;BME280;50675;53.530;-6.312;2022-08-19T10:50:59;100633.78;;;18.74;56.96
64343;BME280;50675;53.530;-6.312;2022-08-19T10:53:43;100629.63;;;18.77;56.98
64343;BME280;50675;53.530;-6.312;2022-08-19T10:56:08;100635.81;;;18.83;57.00
64343;BME280;50675;53.530;-6.312;2022-08-19T10:58:57;100634.31;;;18.90;56.92
64343;BME280;50675;53.530;-6.312;2022-08-19T11:01:27;100643.63;;;18.89;56.89
64343;BME280;50675;53.530;-6.312;2022-08-19T11:03:55;100640.91;;;19.03;57.32
64343;BME280;50675;53.530;-6.312;2022-08-19T11:06:23;100641.31;;;19.10;57.40
64343;BME280;50675;53.530;-6.312;2022-08-19T11:08:51;100637.13;;;19.26;57.16
64343;BME280;50675;53.530;-6.312;2022-08-19T11:11:17;100637.09;;;19.40;57.52
64343;BME280;50675;53.530;-6.312;2022-08-19T11:13:43;100640.13;;;19.65;57.17
64343;BME280;50675;53.530;-6.312;2022-08-19T11:16:13;100643.13;;;19.78;57.16
64343;BME280;50675;53.530;-6.312;2022-08-19T11:18:55;100640.22;;;19.96;57.38
64343;BME280;50675;53.530;-6.312;2022-08-19T11:21:27;100655.69;;;20.15;56.92
64343;BME280;50675;53.530;-6.312;2022-08-19T11:23:57;100657.50;;;20.19;57.12
64343;BME280;50675;53.530;-6.312;2022-08-19T11:26:24;100656.44;;;20.29;57.37
64343;BME280;50675;53.530;-6.312;2022-08-19T11:28:50;100652.56;;;20.30;56.99
64343;BME280;50675;53.530;-6.312;2022-08-19T11:31:21;100645.78;;;20.27;57.15
64343;BME280;50675;53.530;-6.312;2022-08-19T11:33:47;100648.09;;;20.34;57.16
64343;BME280;50675;53.530;-6.312;2022-08-19T11:36:17;100655.72;;;20.37;57.15
64343;BME280;50675;53.530;-6.312;2022-08-19T11:38:44;100657.69;;;20.45;57.10
64343;BME280;50675;53.530;-6.312;2022-08-19T11:41:10;100661.38;;;20.40;56.98
64343;BME280;50675;53.530;-6.312;2022-08-19T11:43:37;100664.94;;;20.41;57.18
64343;BME280;50675;53.530;-6.312;2022-08-19T11:46:07;100660.13;;;20.46;57.08
64343;BME280;50675;53.530;-6.312;2022-08-19T11:48:35;100645.47;;;20.51;57.06
64343;BME280;50675;53.530;-6.312;2022-08-19T11:51:06;100639.66;;;20.52;57.17
64343;BME280;50675;53.530;-6.312;2022-08-19T11:53:32;100633.03;;;20.53;57.10
64343;BME280;50675;53.530;-6.312;2022-08-19T11:55:59;100632.88;;;20.50;57.02
64343;BME280;50675;53.530;-6.312;2022-08-19T11:58:25;100642.03;;;20.45;57.05
64343;BME280;50675;53.530;-6.312;2022-08-19T12:00:52;100627.34;;;20.41;57.09
64343;BME280;50675;53.530;-6.312;2022-08-19T12:03:18;100625.56;;;20.45;56.64
64343;BME280;50675;53.530;-6.312;2022-08-19T12:05:45;100621.75;;;20.55;56.54
64343;BME280;50675;53.530;-6.312;2022-08-19T12:08:12;100632.59;;;20.60;56.71
64343;BME280;50675;53.530;-6.312;2022-08-19T12:10:39;100623.41;;;20.65;56.60
64343;BME280;50675;53.530;-6.312;2022-08-19T12:13:05;100630.03;;;20.64;56.58
64343;BME280;50675;53.530;-6.312;2022-08-19T12:15:36;100633.25;;;20.57;56.36
64343;BME280;50675;53.530;-6.312;2022-08-19T12:18:03;100627.44;;;20.67;56.45
64343;BME280;50675;53.530;-6.312;2022-08-19T12:20:29;100624.06;;;20.62;56.16
64343;BME280;50675;53.530;-6.312;2022-08-19T12:22:55;100624.06;;;20.62;56.47
64343;BME280;50675;53.530;-6.312;2022-08-19T12:25:20;100628.91;;;20.65;56.17
64343;BME280;50675;53.530;-6.312;2022-08-19T12:27:47;100626.84;;;20.70;56.28
64343;BME280;50675;53.530;-6.312;2022-08-19T12:30:13;100628.94;;;20.73;56.24
64343;BME280;50675;53.530;-6.312;2022-08-19T12:32:39;100619.13;;;20.81;56.16
64343;BME280;50675;53.530;-6.312;2022-08-19T12:35:06;100623.16;;;20.75;56.14
64343;BME280;50675;53.530;-6.312;2022-08-19T12:37:33;100611.06;;;20.84;55.81
64343;BME280;50675;53.530;-6.312;2022-08-19T12:40:08;100614.97;;;20.92;55.61
64343;BME280;50675;53.530;-6.312;2022-08-19T12:43:08;100613.19;;;20.96;55.45
64343;BME280;50675;53.530;-6.312;2022-08-19T12:45:53;100609.00;;;20.90;55.35
64343;BME280;50675;53.530;-6.312;2022-08-19T12:48:21;100613.84;;;21.02;55.36
64343;BME280;50675;53.530;-6.312;2022-08-19T12:50:47;100605.28;;;20.94;55.10
64343;BME280;50675;53.530;-6.312;2022-08-19T12:53:42;100612.88;;;20.98;54.99
64343;BME280;50675;53.530;-6.312;2022-08-19T12:56:28;100617.31;;;21.16;55.10
64343;BME280;50675;53.530;-6.312;2022-08-19T13:10:35;100624.81;;;21.41;54.28
64343;BME280;50675;53.530;-6.312;2022-08-19T13:13:06;100619.16;;;21.37;54.21